In Rescue
 
Open Full Screen Window  High Contrast Mode
June 22, 2024 9:41 PM CDT
Weather Information
Wind Direction
  ---
Wind Speed
  00 kt (0 mph)
Wind Gust
  00 kt (0 mph)
Altimeter
29.84 in
Visibility
10 SM
Temperature
19° C
66° F
Dewpoint
15° C
59° F
Humidity
78%
Sky Condition
Overcast @ 10,000 ft
Broken @ 8,000 ft
Broken @ 7,000 ft
VFR

METAR KVWU 230241Z AUTO 00000KT 10SM BKN070 BKN080 OVC100 19/15 A2984 RMK AO2

FAA Disclaimer: The data displayed is for advisory purposes only and is not to be used for flight planning or operations.